Time;durP1;ratioP1;P1;durP2;ratioP2;P2;SDS_P1;SDS_P2;PMS_P1;PMS_P2;Temp;Humidity;BMP_temperature;BMP_pressure;BME280_temperature;BME280_humidity;BME280_pressure;Samples;Min_cycle;Max_cycle;Signal;HPM_P1;HPM_P2
2021/01/16 00:00:24;;;;;;;12.50;8.33;;;1.70;99.90;;;;;;5014797;28;20215;-83
2021/01/16 00:02:50;;;;;;;15.55;9.43;;;1.60;99.90;;;;;;5013552;28;20994;-83
2021/01/16 00:05:18;;;;;;;13.65;8.57;;;1.70;99.90;;;;;;5013902;28;20280;-83
2021/01/16 00:07:46;;;;;;;12.32;9.57;;;1.70;99.90;;;;;;5013008;28;20301;-83
2021/01/16 00:10:15;;;;;;;12.43;8.90;;;1.70;99.90;;;;;;5014697;28;20241;-83
2021/01/16 00:12:42;;;;;;;17.35;10.18;;;1.60;99.90;;;;;;5014036;28;20453;-83
2021/01/16 00:15:09;;;;;;;14.73;8.70;;;1.60;99.90;;;;;;5003872;28;20216;-83
2021/01/16 00:17:36;;;;;;;16.42;10.85;;;1.70;99.90;;;;;;5014408;28;20201;-86
2021/01/16 00:20:03;;;;;;;14.55;9.63;;;1.70;99.90;;;;;;5013266;28;20227;-83
2021/01/16 00:22:30;;;;;;;18.02;8.93;;;1.80;99.90;;;;;;4998733;28;20213;-83
2021/01/16 00:24:58;;;;;;;12.87;9.40;;;1.80;99.90;;;;;;4993837;28;20294;-83
2021/01/16 00:27:25;;;;;;;15.85;10.13;;;1.70;99.90;;;;;;5011538;28;20561;-83
2021/01/16 00:29:51;;;;;;;16.58;9.52;;;1.60;99.90;;;;;;5013132;28;20210;-83
2021/01/16 00:32:18;;;;;;;14.27;9.82;;;1.60;99.90;;;;;;5013715;28;20202;-83
2021/01/16 00:34:44;;;;;;;16.33;10.48;;;1.60;99.90;;;;;;5012950;28;20209;-83
2021/01/16 00:37:10;;;;;;;13.60;9.25;;;1.60;99.90;;;;;;5013526;28;20297;-83
2021/01/16 00:39:38;;;;;;;17.98;11.40;;;1.60;99.90;;;;;;5013193;28;20205;-86
2021/01/16 00:42:05;;;;;;;14.07;9.13;;;1.60;99.90;;;;;;5013311;28;20205;-83
2021/01/16 00:44:32;;;;;;;19.10;11.73;;;1.70;99.90;;;;;;5012915;28;20945;-83
2021/01/16 00:46:58;;;;;;;18.95;10.35;;;1.70;99.90;;;;;;5012852;28;20190;-83
2021/01/16 00:49:24;;;;;;;16.30;10.13;;;1.70;99.90;;;;;;5013875;28;20202;-83
2021/01/16 00:51:51;;;;;;;15.18;10.68;;;1.70;99.90;;;;;;5012570;28;20208;-83
2021/01/16 00:54:17;;;;;;;16.02;10.30;;;1.70;99.90;;;;;;5013624;28;20293;-83
2021/01/16 00:56:44;;;;;;;14.43;9.77;;;1.70;99.90;;;;;;5013122;28;20202;-83
2021/01/16 00:59:11;;;;;;;14.40;9.43;;;1.70;99.90;;;;;;5013486;28;20446;-83
2021/01/16 01:01:39;;;;;;;14.20;9.40;;;1.70;99.90;;;;;;5013317;28;20307;-83
2021/01/16 01:04:08;;;;;;;17.00;10.43;;;1.70;99.90;;;;;;5012791;28;20207;-83
2021/01/16 01:06:34;;;;;;;15.50;8.95;;;1.70;99.90;;;;;;5012824;28;20312;-83
2021/01/16 01:09:01;;;;;;;15.20;9.93;;;1.70;99.90;;;;;;5012783;28;20208;-83
2021/01/16 01:11:27;;;;;;;16.00;10.45;;;1.70;99.90;;;;;;5012868;28;20611;-83
2021/01/16 01:13:54;;;;;;;14.25;9.50;;;1.80;99.90;;;;;;5008132;28;20216;-83
2021/01/16 01:16:21;;;;;;;19.55;9.25;;;1.70;99.90;;;;;;5014902;28;20572;-83
2021/01/16 01:18:48;;;;;;;14.68;9.18;;;1.80;99.90;;;;;;5016346;28;20261;-83
2021/01/16 01:21:15;;;;;;;13.63;8.30;;;1.80;99.90;;;;;;5017398;28;20230;-83
2021/01/16 01:23:41;;;;;;;15.60;9.90;;;1.80;99.90;;;;;;5016992;28;20452;-85
2021/01/16 01:26:07;;;;;;;15.50;10.17;;;1.70;99.90;;;;;;5016553;28;20464;-83
2021/01/16 01:28:34;;;;;;;15.02;9.55;;;1.70;99.90;;;;;;5017290;28;20461;-83
2021/01/16 01:31:01;;;;;;;14.83;9.73;;;1.80;99.90;;;;;;5016066;28;20203;-83
2021/01/16 01:33:27;;;;;;;15.93;9.80;;;1.70;99.90;;;;;;5017026;28;20464;-83
2021/01/16 01:35:53;;;;;;;17.37;9.63;;;1.80;99.90;;;;;;5015564;28;20481;-83
2021/01/16 01:38:20;;;;;;;17.98;10.10;;;1.80;99.90;;;;;;5017174;28;20824;-83
2021/01/16 01:40:46;;;;;;;17.03;9.23;;;1.80;99.90;;;;;;5015458;28;20228;-83
2021/01/16 01:43:13;;;;;;;13.43;8.85;;;1.80;99.90;;;;;;5007314;28;20981;-83
2021/01/16 01:45:40;;;;;;;16.15;9.48;;;1.80;99.90;;;;;;5016948;28;20327;-83
2021/01/16 01:48:08;;;;;;;17.13;10.25;;;1.80;99.90;;;;;;5013709;28;20219;-83
2021/01/16 01:50:35;;;;;;;13.77;8.80;;;1.80;99.90;;;;;;4997172;28;20211;-83
2021/01/16 01:53:02;;;;;;;13.10;9.07;;;1.80;99.90;;;;;;5000002;28;20475;-83
2021/01/16 01:55:29;;;;;;;15.02;9.73;;;1.80;99.90;;;;;;5016724;28;20544;-83
2021/01/16 01:57:59;;;;;;;11.98;9.30;;;1.70;99.90;;;;;;5016033;28;20229;-83
2021/01/16 02:00:26;;;;;;;15.73;9.20;;;1.80;99.90;;;;;;5016924;28;20224;-83
2021/01/16 02:02:58;;;;;;;14.55;9.00;;;1.80;99.90;;;;;;5016048;28;20296;-83
2021/01/16 02:05:25;;;;;;;14.40;9.70;;;1.80;99.90;;;;;;5016562;28;20195;-83
2021/01/16 02:07:52;;;;;;;14.40;9.48;;;1.80;99.90;;;;;;5015144;28;20457;-83
2021/01/16 02:10:22;;;;;;;16.70;9.20;;;1.80;99.90;;;;;;5016514;28;20217;-83
2021/01/16 02:12:51;;;;;;;16.20;10.20;;;1.80;99.90;;;;;;5015349;28;20474;-83
2021/01/16 02:15:30;;;;;;;16.23;10.35;;;1.90;99.90;;;;;;5008644;28;20602;-83
2021/01/16 02:18:01;;;;;;;14.40;9.93;;;1.90;99.90;;;;;;5007773;28;20218;-83
2021/01/16 02:20:32;;;;;;;13.90;8.25;;;1.90;99.90;;;;;;5015472;28;20481;-83
2021/01/16 02:23:35;;;;;;;16.40;10.60;;;1.90;99.90;;;;;;5006422;28;20302;-83
2021/01/16 02:26:38;;;;;;;18.13;10.30;;;1.90;99.90;;;;;;5013153;28;20442;-83
2021/01/16 02:29:08;;;;;;;12.88;9.00;;;1.90;99.90;;;;;;5015067;28;20442;-83
2021/01/16 02:31:40;;;;;;;16.05;9.00;;;1.80;99.90;;;;;;5015910;28;20203;-83
2021/01/16 02:34:08;;;;;;;17.13;9.80;;;1.80;99.90;;;;;;5014958;28;20956;-84
2021/01/16 02:37:04;;;;;;;13.65;9.35;;;1.80;99.90;;;;;;5015091;28;20461;-83
2021/01/16 02:39:40;;;;;;;13.95;9.20;;;1.80;99.90;;;;;;5016656;28;20224;-83
2021/01/16 02:42:09;;;;;;;14.63;9.83;;;1.80;99.90;;;;;;5015787;28;20213;-83
2021/01/16 02:44:47;;;;;;;15.63;9.65;;;1.80;99.90;;;;;;5015763;28;20446;-83
2021/01/16 02:47:23;;;;;;;13.93;9.10;;;1.80;99.90;;;;;;5016048;28;20210;-83
2021/01/16 02:49:53;;;;;;;18.08;10.43;;;1.80;99.90;;;;;;5015421;28;20889;-84
2021/01/16 02:52:22;;;;;;;13.47;9.17;;;1.80;99.90;;;;;;5016456;28;20191;-83
2021/01/16 02:54:49;;;;;;;17.57;9.90;;;1.80;99.90;;;;;;5010369;28;20463;-84
2021/01/16 02:57:16;;;;;;;14.57;9.77;;;1.80;99.90;;;;;;4999064;28;20461;-83
2021/01/16 02:59:44;;;;;;;15.80;11.17;;;1.80;99.90;;;;;;5007476;28;20535;-83
2021/01/16 03:02:12;;;;;;;15.13;10.10;;;1.80;99.90;;;;;;5015150;28;20532;-83
2021/01/16 03:04:39;;;;;;;13.93;9.93;;;1.80;99.90;;;;;;5015356;28;20210;-83
2021/01/16 03:07:07;;;;;;;17.10;9.07;;;1.80;99.90;;;;;;5014421;28;20460;-83
2021/01/16 03:09:34;;;;;;;17.50;10.35;;;1.70;99.90;;;;;;5015049;28;20460;-83
2021/01/16 03:12:01;;;;;;;12.80;9.05;;;1.50;99.90;;;;;;5015164;28;20213;-83
2021/01/16 03:14:31;;;;;;;15.68;9.60;;;1.50;99.90;;;;;;5015022;28;20248;-83
2021/01/16 03:17:12;;;;;;;13.90;8.80;;;1.60;99.90;;;;;;4999519;28;20200;-83
2021/01/16 03:19:42;;;;;;;15.55;9.70;;;1.60;99.90;;;;;;5015704;28;20217;-83
2021/01/16 03:22:22;;;;;;;12.32;8.32;;;1.60;99.90;;;;;;5014576;28;20211;-83
2021/01/16 03:24:50;;;;;;;14.18;8.60;;;1.60;99.90;;;;;;5014901;28;20289;-85
2021/01/16 03:27:16;;;;;;;14.53;9.17;;;1.70;99.90;;;;;;5015002;28;20653;-83
2021/01/16 03:29:43;;;;;;;15.67;8.87;;;1.80;99.90;;;;;;5015240;28;20450;-83
2021/01/16 03:32:11;;;;;;;11.60;8.52;;;1.80;99.90;;;;;;5013776;28;20484;-83
2021/01/16 03:34:38;;;;;;;15.37;8.80;;;1.80;99.90;;;;;;5021121;28;20298;-83
2021/01/16 03:37:05;;;;;;;16.92;9.80;;;1.80;99.90;;;;;;5013889;28;20464;-83
2021/01/16 03:39:31;;;;;;;15.73;9.32;;;1.70;99.90;;;;;;5015071;28;20233;-83
2021/01/16 03:41:57;;;;;;;14.05;8.77;;;1.70;99.90;;;;;;5014182;28;20231;-84
2021/01/16 03:44:24;;;;;;;14.77;10.60;;;1.80;99.90;;;;;;5014641;28;20202;-83
2021/01/16 03:46:50;;;;;;;14.40;9.20;;;1.70;99.90;;;;;;5019915;28;20220;-86
2021/01/16 03:49:18;;;;;;;18.95;10.38;;;1.70;99.90;;;;;;5035453;28;20552;-83
2021/01/16 03:51:44;;;;;;;11.50;8.30;;;1.70;99.90;;;;;;5014572;28;20202;-83
2021/01/16 03:54:11;;;;;;;15.10;9.50;;;1.70;99.90;;;;;;5013451;28;20591;-84
2021/01/16 03:56:37;;;;;;;13.73;9.25;;;1.60;99.90;;;;;;5014615;28;20507;-84
2021/01/16 03:59:04;;;;;;;14.07;9.05;;;1.70;99.90;;;;;;5013231;28;20298;-84
2021/01/16 04:01:32;;;;;;;13.98;9.38;;;1.70;99.90;;;;;;5014241;28;20557;-83
2021/01/16 04:03:58;;;;;;;16.02;9.52;;;1.70;99.90;;;;;;5013807;28;20205;-83
2021/01/16 04:06:25;;;;;;;14.10;8.95;;;1.80;99.90;;;;;;5014034;28;20202;-83
2021/01/16 04:08:52;;;;;;;10.77;7.33;;;1.60;99.90;;;;;;5013478;28;20209;-85
2021/01/16 04:11:18;;;;;;;13.23;9.47;;;1.60;99.90;;;;;;5014038;28;20993;-83
2021/01/16 04:13:44;;;;;;;15.07;9.13;;;1.70;99.90;;;;;;5014135;28;20463;-83
2021/01/16 04:16:11;;;;;;;14.03;8.90;;;1.70;99.90;;;;;;5004138;28;20204;-84
2021/01/16 04:18:37;;;;;;;14.45;8.95;;;1.70;99.90;;;;;;5003612;28;20503;-83
2021/01/16 04:21:04;;;;;;;12.38;9.00;;;1.80;99.90;;;;;;5013326;28;20237;-84
2021/01/16 04:23:32;;;;;;;14.33;9.23;;;1.70;99.90;;;;;;5013956;28;20230;-83
2021/01/16 04:25:58;;;;;;;15.03;8.90;;;1.70;99.90;;;;;;5012633;28;20921;-83
2021/01/16 04:28:25;;;;;;;13.97;8.60;;;1.70;99.90;;;;;;5014267;28;20452;-83
2021/01/16 04:30:51;;;;;;;14.40;9.33;;;1.80;99.90;;;;;;5013489;28;20556;-85
2021/01/16 04:33:18;;;;;;;12.90;8.00;;;1.80;99.90;;;;;;5013135;28;20458;-83
2021/01/16 04:35:44;;;;;;;13.82;8.98;;;1.80;99.90;;;;;;5013576;28;20285;-83
2021/01/16 04:38:11;;;;;;;12.77;8.60;;;1.80;99.90;;;;;;5012407;28;20285;-83
2021/01/16 04:40:39;;;;;;;12.68;7.68;;;1.80;99.90;;;;;;5013347;28;20482;-83
2021/01/16 04:43:06;;;;;;;13.10;8.50;;;1.80;99.90;;;;;;5013076;28;20203;-83
2021/01/16 04:45:34;;;;;;;14.00;8.05;;;1.80;99.90;;;;;;5013018;28;20801;-83
2021/01/16 04:48:03;;;;;;;15.93;9.40;;;1.80;99.90;;;;;;5012869;28;20289;-84
2021/01/16 04:50:32;;;;;;;17.17;9.32;;;1.60;99.90;;;;;;5013044;28;20456;-83
2021/01/16 04:53:02;;;;;;;12.50;8.90;;;1.60;99.90;;;;;;5012716;28;20259;-83
2021/01/16 04:55:32;;;;;;;13.07;7.97;;;1.50;99.90;;;;;;5012432;28;20456;-83
2021/01/16 04:58:10;;;;;;;12.90;7.60;;;1.60;99.90;;;;;;4993521;28;20203;-84
2021/01/16 05:00:38;;;;;;;12.40;9.13;;;1.50;99.90;;;;;;5001446;28;20500;-84
2021/01/16 05:03:07;;;;;;;11.13;8.50;;;1.60;99.90;;;;;;5013281;28;20450;-83
2021/01/16 05:05:37;;;;;;;11.55;8.00;;;1.50;99.90;;;;;;4995590;28;20218;-83
2021/01/16 05:08:03;;;;;;;13.80;8.20;;;1.60;99.90;;;;;;4999613;28;20598;-84
2021/01/16 05:10:36;;;;;;;16.47;8.10;;;1.60;99.90;;;;;;4993571;28;20458;-83
2021/01/16 05:13:12;;;;;;;15.13;8.90;;;1.60;99.90;;;;;;5005061;28;20894;-84
2021/01/16 05:15:40;;;;;;;13.77;8.30;;;1.60;99.90;;;;;;5008315;28;20511;-83
2021/01/16 05:18:09;;;;;;;15.13;9.43;;;1.40;99.90;;;;;;5012379;28;20446;-83
2021/01/16 05:20:37;;;;;;;15.00;8.20;;;1.40;99.90;;;;;;5002396;28;20235;-83
2021/01/16 05:23:14;;;;;;;10.95;8.07;;;1.40;99.90;;;;;;4992928;28;20202;-83
2021/01/16 05:25:43;;;;;;;11.98;6.90;;;1.50;99.90;;;;;;4993596;28;20191;-83
2021/01/16 05:28:11;;;;;;;13.70;7.07;;;1.50;99.90;;;;;;4992740;28;20297;-83
2021/01/16 05:30:48;;;;;;;13.38;8.75;;;1.60;99.90;;;;;;5004808;28;20461;-83
2021/01/16 05:33:14;;;;;;;13.77;7.47;;;1.70;99.90;;;;;;4994021;28;20200;-83
2021/01/16 05:35:41;;;;;;;11.60;7.47;;;1.70;99.90;;;;;;4993667;28;20203;-83
2021/01/16 05:38:08;;;;;;;13.03;7.63;;;1.70;99.90;;;;;;4992779;28;20428;-83
2021/01/16 05:40:37;;;;;;;12.02;7.30;;;1.70;99.90;;;;;;5000464;28;20456;-83
2021/01/16 05:43:05;;;;;;;11.73;6.20;;;1.70;99.90;;;;;;5012199;28;20300;-83
2021/01/16 05:45:35;;;;;;;11.68;7.15;;;1.70;99.90;;;;;;5012888;28;20504;-83
2021/01/16 05:48:03;;;;;;;11.60;6.87;;;1.70;99.90;;;;;;5012351;28;20203;-84
2021/01/16 05:50:29;;;;;;;13.13;7.93;;;1.70;99.90;;;;;;5013093;28;20917;-83
2021/01/16 05:52:56;;;;;;;12.02;7.22;;;1.60;99.90;;;;;;5012331;28;20207;-86
2021/01/16 05:55:23;;;;;;;12.65;7.38;;;1.60;99.90;;;;;;5012534;28;20207;-83
2021/01/16 05:58:00;;;;;;;11.20;6.97;;;1.70;99.90;;;;;;5015534;28;20632;-83
2021/01/16 06:00:26;;;;;;;13.10;7.03;;;1.80;99.90;;;;;;5016790;28;20478;-83
2021/01/16 06:02:57;;;;;;;13.15;7.00;;;1.70;99.90;;;;;;5016696;28;20206;-83
2021/01/16 06:05:24;;;;;;;10.00;6.63;;;1.80;99.90;;;;;;5016535;28;20202;-83
2021/01/16 06:07:52;;;;;;;10.33;7.27;;;1.80;99.90;;;;;;5016443;28;20519;-83
2021/01/16 06:10:20;;;;;;;10.60;7.00;;;1.80;99.90;;;;;;5015526;28;21003;-83
2021/01/16 06:12:47;;;;;;;10.25;7.10;;;1.80;99.90;;;;;;5016479;28;20486;-83
2021/01/16 06:15:15;;;;;;;10.57;7.00;;;1.80;99.90;;;;;;5015376;28;20202;-83
2021/01/16 06:17:45;;;;;;;11.10;5.73;;;1.80;99.90;;;;;;5015873;28;20202;-83
2021/01/16 06:20:13;;;;;;;12.20;7.10;;;1.90;99.90;;;;;;5015552;28;20516;-83
2021/01/16 06:22:41;;;;;;;10.73;6.55;;;1.80;99.90;;;;;;5015837;28;20206;-83
2021/01/16 06:25:18;;;;;;;10.18;7.20;;;1.70;99.90;;;;;;5014961;28;20202;-83
2021/01/16 06:27:45;;;;;;;9.93;6.00;;;1.60;99.90;;;;;;5016210;28;20658;-83
2021/01/16 06:30:15;;;;;;;10.95;5.90;;;1.60;99.90;;;;;;5015316;28;20206;-83
2021/01/16 06:32:49;;;;;;;10.05;6.85;;;1.60;99.90;;;;;;5015475;28;20206;-83
2021/01/16 06:35:18;;;;;;;10.23;6.07;;;1.60;99.90;;;;;;5014237;28;20203;-83
2021/01/16 06:37:46;;;;;;;8.52;5.78;;;1.60;99.90;;;;;;5015727;28;20289;-83
2021/01/16 06:40:21;;;;;;;11.98;6.95;;;1.70;99.90;;;;;;5015134;28;20203;-83
2021/01/16 06:42:51;;;;;;;10.00;5.80;;;1.80;99.90;;;;;;5015635;28;20197;-82
2021/01/16 06:45:22;;;;;;;9.10;5.43;;;1.80;99.90;;;;;;5014571;28;20537;-83
2021/01/16 06:47:55;;;;;;;9.90;6.27;;;1.80;99.90;;;;;;5016028;28;20464;-82
2021/01/16 06:50:22;;;;;;;10.20;6.50;;;1.70;99.90;;;;;;5016190;28;20450;-83
2021/01/16 06:52:49;;;;;;;9.53;5.70;;;1.60;99.90;;;;;;5015842;28;20476;-82
2021/01/16 06:55:17;;;;;;;8.67;5.20;;;1.70;99.90;;;;;;5015289;28;20537;-82
2021/01/16 06:57:44;;;;;;;13.07;6.90;;;1.70;99.90;;;;;;5016077;28;20467;-83
2021/01/16 07:00:15;;;;;;;10.13;5.90;;;1.60;99.90;;;;;;5015215;28;20449;-82
2021/01/16 07:02:44;;;;;;;9.90;6.50;;;1.60;99.90;;;;;;5016144;28;20193;-82
2021/01/16 07:05:20;;;;;;;9.98;5.80;;;1.60;99.90;;;;;;5014751;28;20201;-82
2021/01/16 07:07:51;;;;;;;13.90;6.90;;;1.60;99.90;;;;;;5014769;28;20187;-82
2021/01/16 07:10:20;;;;;;;9.23;5.15;;;1.50;99.90;;;;;;5014715;28;20195;-82
2021/01/16 07:12:48;;;;;;;9.70;6.33;;;1.50;99.90;;;;;;5015231;28;20206;-82
2021/01/16 07:15:20;;;;;;;9.25;5.40;;;1.60;99.90;;;;;;5014370;28;20454;-83
2021/01/16 07:17:47;;;;;;;10.02;6.13;;;1.60;99.90;;;;;;5010758;28;20197;-83
2021/01/16 07:20:14;;;;;;;11.20;6.40;;;1.70;99.90;;;;;;5014677;28;20245;-86
2021/01/16 07:22:45;;;;;;;13.00;7.20;;;1.70;99.90;;;;;;5015369;28;20450;-83
2021/01/16 07:25:14;;;;;;;9.57;6.20;;;1.80;99.90;;;;;;5014952;28;20281;-82
2021/01/16 07:27:42;;;;;;;10.50;6.10;;;1.70;99.90;;;;;;5015283;28;20462;-82
2021/01/16 07:30:10;;;;;;;9.55;5.90;;;1.60;99.90;;;;;;5013981;28;20203;-83
2021/01/16 07:32:39;;;;;;;10.73;6.57;;;1.60;99.90;;;;;;5014333;28;20639;-82
2021/01/16 07:35:14;;;;;;;11.13;6.55;;;1.70;99.90;;;;;;5013813;28;20640;-83
2021/01/16 07:37:44;;;;;;;11.77;6.72;;;1.70;99.90;;;;;;5013079;28;20222;-82
2021/01/16 07:40:15;;;;;;;11.23;6.57;;;1.70;99.90;;;;;;5014162;28;20236;-82
2021/01/16 07:42:52;;;;;;;10.57;6.17;;;1.80;99.90;;;;;;5010026;28;20442;-82
2021/01/16 07:45:28;;;;;;;10.80;7.40;;;1.80;99.90;;;;;;5014062;28;20526;-82
2021/01/16 07:47:56;;;;;;;12.90;7.37;;;1.70;99.90;;;;;;5014847;28;20449;-82
2021/01/16 07:50:24;;;;;;;11.30;7.23;;;1.70;99.90;;;;;;5014699;28;20460;-82
2021/01/16 07:52:55;;;;;;;10.60;7.82;;;1.70;99.90;;;;;;5015100;28;20474;-83
2021/01/16 07:55:42;;;;;;;14.43;7.57;;;1.70;99.90;;;;;;5014591;28;20294;-82
2021/01/16 07:58:15;;;;;;;15.43;7.50;;;1.70;99.90;;;;;;5014747;28;20257;-82
2021/01/16 08:00:50;;;;;;;12.63;8.30;;;1.80;99.90;;;;;;5014727;28;20662;-82
2021/01/16 08:03:22;;;;;;;11.20;6.95;;;1.80;99.90;;;;;;5014844;28;20199;-82
2021/01/16 08:05:56;;;;;;;14.02;8.65;;;1.80;99.90;;;;;;5015221;28;20191;-82
2021/01/16 08:08:42;;;;;;;13.95;7.25;;;1.70;99.90;;;;;;5015629;28;20642;-82
2021/01/16 08:11:13;;;;;;;14.35;8.23;;;1.70;99.90;;;;;;5016782;28;20202;-82
2021/01/16 08:13:41;;;;;;;15.30;6.68;;;1.80;99.90;;;;;;5016670;28;20194;-82
2021/01/16 08:16:08;;;;;;;14.23;8.95;;;1.90;99.90;;;;;;5014756;28;20206;-82
2021/01/16 08:18:38;;;;;;;14.60;7.70;;;1.70;99.90;;;;;;5014871;28;20199;-85
2021/01/16 08:21:10;;;;;;;14.75;9.23;;;1.90;99.90;;;;;;5014426;28;20618;-85
2021/01/16 08:23:47;;;;;;;11.13;7.97;;;1.80;99.90;;;;;;5014123;28;20227;-84
2021/01/16 08:26:15;;;;;;;16.90;9.40;;;1.90;99.90;;;;;;5013298;28;20191;-85
2021/01/16 08:28:44;;;;;;;12.43;8.57;;;2.00;99.90;;;;;;5014686;28;20202;-84
2021/01/16 08:31:28;;;;;;;12.03;8.70;;;2.00;99.90;;;;;;5013600;28;20210;-85
2021/01/16 08:33:54;;;;;;;15.40;8.63;;;1.90;99.90;;;;;;5012921;28;20449;-85
2021/01/16 08:36:22;;;;;;;12.85;8.20;;;2.00;99.90;;;;;;5013704;28;20684;-82
2021/01/16 08:38:50;;;;;;;13.85;8.70;;;2.10;99.90;;;;;;5014306;28;20241;-82
2021/01/16 08:41:26;;;;;;;13.00;8.63;;;2.00;99.90;;;;;;5013804;28;20620;-82
2021/01/16 08:43:54;;;;;;;18.93;9.23;;;2.00;99.90;;;;;;5013773;28;20485;-82
2021/01/16 08:46:26;;;;;;;15.27;8.73;;;2.10;99.90;;;;;;5013632;28;20486;-82
2021/01/16 08:49:04;;;;;;;15.47;8.97;;;2.10;99.90;;;;;;5014266;28;20489;-82
2021/01/16 08:51:33;;;;;;;16.38;8.38;;;2.00;99.90;;;;;;5014910;28;20918;-82
2021/01/16 08:54:21;;;;;;;14.00;9.27;;;2.00;99.90;;;;;;5014556;28;20203;-82
2021/01/16 08:56:49;;;;;;;13.93;8.27;;;2.00;99.90;;;;;;5010096;28;20295;-82
2021/01/16 08:59:27;;;;;;;13.20;9.57;;;2.00;99.90;;;;;;5014524;28;20941;-82
2021/01/16 09:02:04;;;;;;;13.57;9.20;;;2.00;99.90;;;;;;5013986;28;20225;-82
2021/01/16 09:04:32;;;;;;;12.43;7.87;;;1.90;99.90;;;;;;5014752;28;20461;-81
2021/01/16 09:07:11;;;;;;;14.40;8.90;;;1.90;99.90;;;;;;5015638;28;20529;-82
2021/01/16 09:09:37;;;;;;;13.23;9.23;;;2.00;99.90;;;;;;5018615;28;20445;-81
2021/01/16 09:12:10;;;;;;;13.40;8.00;;;2.00;99.90;;;;;;5017344;28;20210;-86
2021/01/16 09:14:38;;;;;;;12.57;8.03;;;2.00;99.90;;;;;;5015126;28;20282;-81
2021/01/16 09:17:19;;;;;;;14.30;7.90;;;2.00;99.90;;;;;;5014162;28;20456;-87
2021/01/16 09:19:52;;;;;;;13.00;9.70;;;2.00;99.90;;;;;;5014348;28;20438;-82
2021/01/16 09:22:20;;;;;;;12.27;7.67;;;2.10;99.90;;;;;;5013282;28;20213;-82
2021/01/16 09:24:47;;;;;;;12.90;8.30;;;2.10;99.90;;;;;;5013610;28;20449;-82
2021/01/16 09:27:29;;;;;;;15.20;8.40;;;2.00;99.90;;;;;;5012863;28;20554;-82
2021/01/16 09:29:56;;;;;;;13.10;9.10;;;2.10;99.90;;;;;;5013936;28;20445;-82
2021/01/16 09:32:31;;;;;;;14.20;9.23;;;2.20;99.90;;;;;;5015382;28;20457;-82
2021/01/16 09:34:58;;;;;;;14.10;8.37;;;2.40;99.90;;;;;;5016320;28;20457;-82
2021/01/16 09:37:26;;;;;;;13.60;8.07;;;2.30;99.90;;;;;;5017290;28;20416;-82
2021/01/16 09:40:11;;;;;;;14.82;8.55;;;2.20;99.90;;;;;;5017259;28;20286;-82
2021/01/16 09:42:47;;;;;;;13.70;7.80;;;2.30;99.90;;;;;;5016883;28;20317;-82
2021/01/16 09:45:15;;;;;;;16.03;8.20;;;2.20;99.90;;;;;;5017029;28;20473;-82
2021/01/16 09:47:50;;;;;;;16.30;8.33;;;2.20;99.90;;;;;;5017699;28;20461;-82
2021/01/16 09:50:18;;;;;;;13.10;8.68;;;2.20;99.90;;;;;;5016828;28;20489;-82
2021/01/16 09:52:50;;;;;;;15.43;9.20;;;2.30;99.90;;;;;;5017416;28;20542;-83
2021/01/16 09:55:21;;;;;;;13.10;8.30;;;2.30;99.90;;;;;;5017106;28;20453;-82
2021/01/16 09:57:49;;;;;;;13.97;9.13;;;2.20;99.90;;;;;;5017032;28;20246;-81
2021/01/16 10:00:17;;;;;;;15.60;8.95;;;2.10;99.90;;;;;;5016782;28;20545;-81
2021/01/16 10:02:44;;;;;;;12.27;7.68;;;2.10;99.90;;;;;;5017196;28;20229;-81
2021/01/16 10:05:16;;;;;;;12.03;7.60;;;2.10;99.90;;;;;;5017053;28;20202;-82
2021/01/16 10:07:43;;;;;;;15.33;7.87;;;2.20;99.90;;;;;;5017898;28;20520;-81
2021/01/16 10:10:15;;;;;;;15.67;9.10;;;2.20;99.90;;;;;;5016704;28;20532;-84
2021/01/16 10:12:43;;;;;;;12.25;7.85;;;2.20;99.90;;;;;;5017085;28;20457;-81
2021/01/16 10:15:13;;;;;;;15.47;9.03;;;2.30;99.90;;;;;;5017004;28;20337;-85
2021/01/16 10:17:50;;;;;;;15.07;10.00;;;2.40;99.90;;;;;;5016900;28;20420;-82
2021/01/16 10:20:17;;;;;;;16.35;9.40;;;2.40;99.90;;;;;;5016916;28;20449;-81
2021/01/16 10:22:52;;;;;;;11.97;8.57;;;2.30;99.90;;;;;;5017223;28;20230;-81
2021/01/16 10:25:19;;;;;;;15.73;9.88;;;2.30;99.90;;;;;;5017188;28;20835;-82
2021/01/16 10:27:52;;;;;;;13.88;8.57;;;2.40;99.90;;;;;;5017145;28;20643;-81
2021/01/16 10:30:21;;;;;;;15.83;9.83;;;2.40;99.90;;;;;;5016762;28;20278;-81
2021/01/16 10:32:48;;;;;;;13.60;8.80;;;2.40;99.90;;;;;;5016502;28;20456;-81
2021/01/16 10:35:23;;;;;;;16.77;10.33;;;2.50;99.90;;;;;;5016331;28;20452;-81
2021/01/16 10:37:51;;;;;;;15.63;9.77;;;2.40;99.90;;;;;;5016619;28;20909;-81
2021/01/16 10:40:18;;;;;;;15.53;10.80;;;2.60;99.90;;;;;;5016597;28;20476;-81
2021/01/16 10:42:46;;;;;;;17.30;10.60;;;2.60;99.90;;;;;;5015239;28;20998;-81
2021/01/16 10:45:15;;;;;;;15.03;10.00;;;2.60;99.90;;;;;;5018705;28;20478;-80
2021/01/16 10:47:44;;;;;;;16.80;10.27;;;2.50;99.90;;;;;;5021185;28;20993;-81
2021/01/16 10:50:13;;;;;;;16.27;9.50;;;2.50;99.90;;;;;;5025330;28;20900;-81
2021/01/16 10:52:41;;;;;;;15.73;9.30;;;2.60;99.90;;;;;;5018391;28;20461;-81
2021/01/16 10:55:09;;;;;;;18.73;10.57;;;2.70;99.90;;;;;;5017097;28;20529;-83
2021/01/16 10:57:42;;;;;;;17.80;10.70;;;2.60;99.90;;;;;;5015519;28;21015;-81
2021/01/16 11:00:12;;;;;;;15.10;9.20;;;2.50;99.90;;;;;;5015716;28;20540;-85
2021/01/16 11:02:41;;;;;;;15.33;10.37;;;2.50;99.90;;;;;;5017438;28;20821;-81
2021/01/16 11:05:20;;;;;;;15.77;10.30;;;2.50;99.90;;;;;;4996332;28;20461;-89
2021/01/16 11:07:48;;;;;;;16.00;9.10;;;2.50;99.90;;;;;;5027567;28;20516;-81
2021/01/16 11:10:16;;;;;;;14.60;9.73;;;2.60;99.90;;;;;;5024082;28;20489;-82
2021/01/16 11:12:45;;;;;;;17.63;10.23;;;2.60;99.90;;;;;;5036636;28;20431;-81
2021/01/16 11:15:26;;;;;;;15.40;9.77;;;2.60;99.90;;;;;;5035356;28;20451;-83
2021/01/16 11:17:56;;;;;;;17.10;10.30;;;2.40;99.90;;;;;;5034504;28;20460;-81
2021/01/16 11:20:26;;;;;;;21.17;10.77;;;2.60;99.90;;;;;;5037303;28;20523;-81
2021/01/16 11:23:29;;;;;;;17.93;9.03;;;2.60;99.90;;;;;;5034932;28;20214;-81
2021/01/16 11:25:57;;;;;;;19.07;8.87;;;2.80;99.90;;;;;;5015006;28;20449;-82
2021/01/16 11:28:25;;;;;;;13.93;8.93;;;2.60;99.90;;;;;;5014809;28;20452;-81
2021/01/16 11:31:02;;;;;;;13.67;9.13;;;2.70;99.90;;;;;;5015258;28;20830;-81
2021/01/16 11:33:28;;;;;;;15.10;9.40;;;2.80;99.90;;;;;;5014771;28;20438;-83
2021/01/16 11:36:11;;;;;;;16.53;9.40;;;2.80;99.90;;;;;;5015432;28;20539;-82
2021/01/16 11:38:45;;;;;;;13.53;9.10;;;2.80;99.90;;;;;;5015132;28;20536;-82
2021/01/16 11:41:15;;;;;;;18.63;10.60;;;2.80;99.90;;;;;;5003491;28;20480;-86
2021/01/16 11:43:43;;;;;;;14.53;9.57;;;2.90;99.90;;;;;;5015350;28;20454;-82
2021/01/16 11:46:11;;;;;;;13.87;9.37;;;2.80;99.90;;;;;;5020179;28;20448;-87
2021/01/16 11:48:39;;;;;;;15.57;10.27;;;2.80;99.90;;;;;;5031105;28;20502;-83
2021/01/16 11:51:15;;;;;;;14.03;9.67;;;2.70;99.90;;;;;;5016879;28;20450;-82
2021/01/16 11:53:45;;;;;;;13.23;9.50;;;2.70;99.90;;;;;;4998834;28;20530;-81
2021/01/16 11:56:14;;;;;;;14.00;10.10;;;2.80;99.90;;;;;;5013844;28;20450;-87
2021/01/16 11:58:41;;;;;;;16.43;9.57;;;2.70;99.90;;;;;;5014707;28;20530;-82
2021/01/16 12:01:08;;;;;;;15.33;9.47;;;2.80;99.90;;;;;;5014477;28;20640;-81
2021/01/16 12:03:34;;;;;;;14.77;10.30;;;2.60;99.90;;;;;;5016532;28;20453;-81
2021/01/16 12:06:16;;;;;;;12.90;8.93;;;2.80;99.90;;;;;;5034373;28;20467;-80
2021/01/16 12:08:45;;;;;;;12.57;8.20;;;2.80;99.90;;;;;;5015525;28;20535;-82
2021/01/16 12:11:12;;;;;;;12.13;8.40;;;2.90;99.90;;;;;;5028475;28;20457;-85
2021/01/16 12:13:40;;;;;;;17.63;8.23;;;2.90;99.90;;;;;;5030120;28;20781;-82
2021/01/16 12:16:12;;;;;;;14.33;9.37;;;2.80;99.90;;;;;;5014699;28;20516;-82
2021/01/16 12:18:38;;;;;;;13.70;8.63;;;2.90;99.90;;;;;;5014756;28;20529;-82
2021/01/16 12:21:06;;;;;;;13.80;9.30;;;2.90;99.90;;;;;;5033416;28;21003;-82
2021/01/16 12:23:40;;;;;;;13.70;9.03;;;2.90;99.90;;;;;;5023584;28;20468;-81
2021/01/16 12:26:10;;;;;;;13.77;8.27;;;3.00;99.90;;;;;;5034722;28;20495;-82
2021/01/16 12:28:39;;;;;;;17.13;9.43;;;3.00;99.90;;;;;;5020285;28;20472;-82
2021/01/16 12:31:06;;;;;;;14.73;8.93;;;3.10;99.90;;;;;;5015918;28;20446;-82
2021/01/16 12:33:33;;;;;;;15.27;9.53;;;3.00;99.90;;;;;;5013547;28;20536;-81
2021/01/16 12:36:05;;;;;;;11.90;8.80;;;2.90;99.90;;;;;;5014314;28;20453;-81
2021/01/16 12:38:32;;;;;;;14.43;9.63;;;2.90;99.90;;;;;;5013186;28;20446;-81
2021/01/16 12:40:59;;;;;;;13.67;8.83;;;3.00;99.90;;;;;;5014193;28;20481;-82
2021/01/16 12:43:25;;;;;;;14.47;8.70;;;3.10;99.90;;;;;;5013378;28;20428;-82
2021/01/16 12:45:52;;;;;;;13.27;9.30;;;3.10;99.90;;;;;;5013477;28;20527;-82
2021/01/16 12:48:20;;;;;;;13.67;9.57;;;2.90;99.90;;;;;;5013384;28;20457;-83
2021/01/16 12:50:47;;;;;;;13.27;8.70;;;2.80;99.90;;;;;;5018334;28;20508;-84
2021/01/16 12:53:15;;;;;;;16.30;9.87;;;2.90;99.90;;;;;;5013653;28;20538;-88
2021/01/16 12:55:41;;;;;;;12.67;8.77;;;2.90;99.90;;;;;;5013953;28;20461;-82
2021/01/16 12:58:09;;;;;;;18.20;9.93;;;2.70;99.90;;;;;;5013797;28;20888;-82